DLH9PK EKCH-LOWW
Flight info
| Callsign | DLH9PK |
|---|---|
| Flight time | 1h 21m |
| Altitude | 37000 |
| Route | SALLO M44 KOGIM M602 USEDU DCT LUROS M725 HDO DCT EVIKU DCT BITSI DCT MIKOV MIKOV8W |
| Aircraft | A20N/M-SDE2E3FGHIRWXY/LB1 |
Departure
| Time | 2026-05-04 17:42 |
|---|---|
| Airport | Copenhagen Kastrup Airport (EKCH) |
Arrival
| Time | 2026-05-04 19:03 |
|---|---|
| Airport | Vienna International Airport (LOWW) |
| Time | Latitude | Longitude | Altitude | Speed | Heading |
|---|---|---|---|---|---|
| 2026-05-04 17:03 | 55.62730 | 12.64275 | 18 ft | 0 kts | 303° |
| 2026-05-04 17:27 | 55.62730 | 12.64277 | 18 ft | 1 kts | 303° |
| 2026-05-04 17:27 | 55.62710 | 12.64316 | 18 ft | 2 kts | 333° |
| 2026-05-04 17:28 | 55.62681 | 12.64324 | 18 ft | 2 kts | 15° |
| 2026-05-04 17:29 | 55.62640 | 12.64292 | 18 ft | 2 kts | 25° |
| 2026-05-04 17:29 | 55.62602 | 12.64255 | 17 ft | 1 kts | 34° |
| 2026-05-04 17:30 | 55.62568 | 12.64216 | 17 ft | 0 kts | 32° |
| 2026-05-04 17:31 | 55.62550 | 12.64176 | 16 ft | 2 kts | 74° |
| 2026-05-04 17:31 | 55.62559 | 12.64102 | 15 ft | 2 kts | 129° |
| 2026-05-04 17:32 | 55.62565 | 12.64088 | 15 ft | 0 kts | 124° |
| 2026-05-04 17:35 | 55.62555 | 12.64114 | 15 ft | 2 kts | 124° |
| 2026-05-04 17:35 | 55.62499 | 12.64264 | 15 ft | 13 kts | 123° |
| 2026-05-04 17:35 | 55.62447 | 12.64388 | 15 ft | 14 kts | 129° |
| 2026-05-04 17:36 | 55.62381 | 12.64447 | 15 ft | 10 kts | 199° |
| 2026-05-04 17:36 | 55.62348 | 12.64430 | 15 ft | 2 kts | 194° |
| 2026-05-04 17:37 | 55.62333 | 12.64423 | 15 ft | 4 kts | 194° |
| 2026-05-04 17:37 | 55.62294 | 12.64406 | 15 ft | 7 kts | 194° |
| 2026-05-04 17:37 | 55.62231 | 12.64371 | 15 ft | 11 kts | 201° |
| 2026-05-04 17:38 | 55.62152 | 12.64306 | 15 ft | 14 kts | 206° |
| 2026-05-04 17:38 | 55.62053 | 12.64222 | 16 ft | 16 kts | 205° |
| 2026-05-04 17:38 | 55.61961 | 12.64146 | 18 ft | 14 kts | 205° |
| 2026-05-04 17:38 | 55.61906 | 12.64099 | 18 ft | 3 kts | 207° |
| 2026-05-04 17:39 | 55.61887 | 12.64083 | 19 ft | 0 kts | 201° |
| 2026-05-04 17:39 | 55.61877 | 12.64077 | 19 ft | 2 kts | 197° |
| 2026-05-04 17:39 | 55.61869 | 12.64074 | 20 ft | 4 kts | 189° |
| 2026-05-04 17:40 | 55.61791 | 12.64075 | 20 ft | 14 kts | 176° |
| 2026-05-04 17:40 | 55.61714 | 12.64084 | 20 ft | 10 kts | 176° |
| 2026-05-04 17:40 | 55.61639 | 12.64084 | 20 ft | 11 kts | 197° |
| 2026-05-04 17:40 | 55.61593 | 12.64024 | 20 ft | 0 kts | 222° |
| 2026-05-04 17:41 | 55.61591 | 12.64020 | 20 ft | 3 kts | 222° |
| 2026-05-04 17:41 | 55.61486 | 12.63858 | 21 ft | 51 kts | 223° |
| 2026-05-04 17:41 | 55.61009 | 12.63116 | 19 ft | 127 kts | 223° |
| 2026-05-04 17:41 | 55.60243 | 12.61908 | 386 ft | 154 kts | 225° |
| 2026-05-04 17:42 | 55.59441 | 12.60687 | 1100 ft | 155 kts | 224° |
| 2026-05-04 17:42 | 55.58634 | 12.59463 | 1835 ft | 157 kts | 226° |
| 2026-05-04 17:42 | 55.57778 | 12.58156 | 2424 ft | 170 kts | 226° |
| 2026-05-04 17:42 | 55.56852 | 12.56724 | 2963 ft | 185 kts | 225° |
| 2026-05-04 17:43 | 55.55741 | 12.55412 | 3490 ft | 204 kts | 212° |
| 2026-05-04 17:43 | 55.54277 | 12.54897 | 3963 ft | 233 kts | 181° |
| 2026-05-04 17:43 | 55.52592 | 12.55385 | 4501 ft | 255 kts | 171° |
| 2026-05-04 17:43 | 55.50874 | 12.56137 | 5296 ft | 263 kts | 170° |
| 2026-05-04 17:44 | 55.49062 | 12.56974 | 5929 ft | 279 kts | 169° |
| 2026-05-04 17:44 | 55.47189 | 12.57852 | 6817 ft | 284 kts | 169° |
| 2026-05-04 17:44 | 55.45307 | 12.58947 | 7751 ft | 291 kts | 157° |
| 2026-05-04 17:44 | 55.43718 | 12.61167 | 8311 ft | 301 kts | 132° |
| 2026-05-04 17:45 | 55.42687 | 12.64386 | 8248 ft | 304 kts | 111° |
| 2026-05-04 17:45 | 55.42083 | 12.67945 | 8005 ft | 302 kts | 105° |
| 2026-05-04 17:45 | 55.41513 | 12.71493 | 7931 ft | 301 kts | 115° |
| 2026-05-04 17:45 | 55.40296 | 12.74417 | 7949 ft | 298 kts | 143° |
| 2026-05-04 17:46 | 55.38621 | 12.76548 | 8525 ft | 303 kts | 150° |
| 2026-05-04 17:46 | 55.36892 | 12.78549 | 9584 ft | 301 kts | 150° |
| 2026-05-04 17:46 | 55.35172 | 12.80617 | 10473 ft | 305 kts | 150° |
| 2026-05-04 17:46 | 55.33411 | 12.82828 | 10991 ft | 321 kts | 149° |
| 2026-05-04 17:47 | 55.31551 | 12.85242 | 11417 ft | 340 kts | 148° |
| 2026-05-04 17:47 | 55.29621 | 12.87801 | 11821 ft | 358 kts | 147° |
| 2026-05-04 17:47 | 55.27608 | 12.90508 | 12455 ft | 368 kts | 147° |
| 2026-05-04 17:47 | 55.25593 | 12.93238 | 13262 ft | 370 kts | 147° |
| 2026-05-04 17:48 | 55.23558 | 12.95995 | 14038 ft | 374 kts | 147° |
| 2026-05-04 17:48 | 55.21495 | 12.98786 | 14774 ft | 378 kts | 148° |
| 2026-05-04 17:48 | 55.19432 | 13.01571 | 15492 ft | 382 kts | 148° |
| 2026-05-04 17:48 | 55.17321 | 13.04415 | 16204 ft | 385 kts | 148° |
| 2026-05-04 17:49 | 55.15192 | 13.07280 | 16891 ft | 389 kts | 148° |
| 2026-05-04 17:49 | 55.13043 | 13.10167 | 17559 ft | 393 kts | 148° |
| 2026-05-04 17:49 | 55.10813 | 13.12860 | 18187 ft | 389 kts | 160° |
| 2026-05-04 17:49 | 55.08294 | 13.14241 | 18827 ft | 379 kts | 175° |
| 2026-05-04 17:50 | 55.05716 | 13.15103 | 19449 ft | 382 kts | 176° |
| 2026-05-04 17:50 | 55.03097 | 13.15928 | 20026 ft | 386 kts | 176° |
| 2026-05-04 17:50 | 55.00446 | 13.16762 | 20611 ft | 390 kts | 176° |
| 2026-05-04 17:50 | 54.97794 | 13.17603 | 21187 ft | 393 kts | 176° |
| 2026-05-04 17:51 | 54.95097 | 13.18467 | 21764 ft | 397 kts | 176° |
| 2026-05-04 17:51 | 54.92361 | 13.19347 | 22322 ft | 401 kts | 176° |
| 2026-05-04 17:51 | 54.89624 | 13.20227 | 22869 ft | 404 kts | 176° |
| 2026-05-04 17:51 | 54.86874 | 13.21112 | 23413 ft | 408 kts | 176° |
| 2026-05-04 17:52 | 54.84050 | 13.22021 | 23942 ft | 411 kts | 176° |
| 2026-05-04 17:52 | 54.81249 | 13.22920 | 24458 ft | 414 kts | 176° |
| 2026-05-04 17:52 | 54.78437 | 13.23825 | 24958 ft | 417 kts | 176° |
| 2026-05-04 17:52 | 54.75570 | 13.24745 | 25446 ft | 420 kts | 176° |
| 2026-05-04 17:53 | 54.72688 | 13.25670 | 25920 ft | 423 kts | 176° |
| 2026-05-04 17:53 | 54.69782 | 13.26601 | 26384 ft | 426 kts | 176° |
| 2026-05-04 17:53 | 54.66874 | 13.27529 | 26835 ft | 429 kts | 176° |
| 2026-05-04 17:53 | 54.63953 | 13.28462 | 27267 ft | 432 kts | 176° |
| 2026-05-04 17:54 | 54.61006 | 13.29400 | 27672 ft | 434 kts | 176° |
| 2026-05-04 17:54 | 54.58017 | 13.30351 | 28063 ft | 437 kts | 176° |
| 2026-05-04 17:54 | 54.55036 | 13.31298 | 28440 ft | 440 kts | 176° |
| 2026-05-04 17:54 | 54.52032 | 13.32251 | 28798 ft | 442 kts | 176° |
| 2026-05-04 17:55 | 54.49021 | 13.33206 | 29137 ft | 444 kts | 176° |
| 2026-05-04 17:55 | 54.46009 | 13.34159 | 29453 ft | 446 kts | 176° |
| 2026-05-04 17:55 | 54.42931 | 13.35130 | 29754 ft | 448 kts | 176° |
| 2026-05-04 17:55 | 54.39908 | 13.36085 | 30034 ft | 450 kts | 177° |
| 2026-05-04 17:56 | 54.36832 | 13.37054 | 30349 ft | 450 kts | 177° |
| 2026-05-04 17:56 | 54.33752 | 13.38022 | 30744 ft | 449 kts | 176° |
| 2026-05-04 17:56 | 54.30714 | 13.38978 | 31131 ft | 447 kts | 177° |
| 2026-05-04 17:56 | 54.27651 | 13.39942 | 31509 ft | 445 kts | 177° |
| 2026-05-04 17:57 | 54.24635 | 13.40888 | 31868 ft | 444 kts | 176° |
| 2026-05-04 17:57 | 54.21627 | 13.41828 | 32225 ft | 442 kts | 176° |
| 2026-05-04 17:57 | 54.18621 | 13.42768 | 32569 ft | 441 kts | 176° |
| 2026-05-04 17:57 | 54.15588 | 13.43715 | 32908 ft | 439 kts | 177° |
| 2026-05-04 17:58 | 54.12609 | 13.44645 | 33244 ft | 438 kts | 176° |
| 2026-05-04 17:58 | 54.09617 | 13.45574 | 33569 ft | 437 kts | 176° |
| 2026-05-04 17:58 | 54.06667 | 13.46490 | 33878 ft | 435 kts | 176° |
| 2026-05-04 17:58 | 54.03709 | 13.47406 | 34184 ft | 434 kts | 176° |
| 2026-05-04 17:59 | 54.00741 | 13.48322 | 34466 ft | 434 kts | 176° |
| 2026-05-04 17:59 | 53.97754 | 13.49241 | 34727 ft | 433 kts | 176° |
| 2026-05-04 17:59 | 53.91880 | 13.51048 | 35214 ft | 433 kts | 176° |
| 2026-05-04 18:00 | 53.88885 | 13.51968 | 35394 ft | 435 kts | 176° |
| 2026-05-04 18:00 | 53.85932 | 13.52873 | 35568 ft | 436 kts | 175° |
| 2026-05-04 18:00 | 53.82928 | 13.53793 | 35747 ft | 437 kts | 175° |
| 2026-05-04 18:00 | 53.79970 | 13.54698 | 35920 ft | 438 kts | 175° |
| 2026-05-04 18:01 | 53.76974 | 13.55614 | 36087 ft | 439 kts | 175° |
| 2026-05-04 18:01 | 53.73949 | 13.56538 | 36246 ft | 440 kts | 175° |
| 2026-05-04 18:01 | 53.70945 | 13.57454 | 36378 ft | 441 kts | 175° |
| 2026-05-04 18:02 | 53.64905 | 13.59291 | 36644 ft | 444 kts | 175° |
| 2026-05-04 18:02 | 53.61879 | 13.60209 | 36768 ft | 445 kts | 175° |
| 2026-05-04 18:02 | 53.58825 | 13.61135 | 36879 ft | 446 kts | 174° |
| 2026-05-04 18:02 | 53.55791 | 13.62053 | 36944 ft | 448 kts | 174° |
| 2026-05-04 18:03 | 53.49682 | 13.63900 | 36949 ft | 448 kts | 174° |
| 2026-05-04 18:03 | 53.43538 | 13.65753 | 36950 ft | 448 kts | 175° |
| 2026-05-04 18:04 | 53.37418 | 13.67592 | 36949 ft | 448 kts | 175° |
| 2026-05-04 18:05 | 53.28253 | 13.70333 | 36940 ft | 448 kts | 175° |
| 2026-05-04 18:05 | 53.22140 | 13.72153 | 36932 ft | 449 kts | 175° |
| 2026-05-04 18:06 | 53.12949 | 13.74882 | 36927 ft | 449 kts | 175° |
| 2026-05-04 18:06 | 53.06823 | 13.76695 | 36926 ft | 449 kts | 175° |
| 2026-05-04 18:07 | 53.00724 | 13.78493 | 36926 ft | 449 kts | 175° |
| 2026-05-04 18:07 | 52.94590 | 13.80296 | 36926 ft | 450 kts | 175° |
| 2026-05-04 18:08 | 52.88410 | 13.82109 | 36927 ft | 450 kts | 175° |
| 2026-05-04 18:08 | 52.82282 | 13.83901 | 36926 ft | 451 kts | 175° |
| 2026-05-04 18:09 | 52.69980 | 13.87485 | 36926 ft | 451 kts | 175° |
| 2026-05-04 18:10 | 52.63829 | 13.89266 | 36926 ft | 452 kts | 175° |
| 2026-05-04 18:10 | 52.57650 | 13.91054 | 36926 ft | 452 kts | 175° |
| 2026-05-04 18:11 | 52.51479 | 13.92834 | 36926 ft | 452 kts | 175° |
| 2026-05-04 18:11 | 52.45330 | 13.94600 | 36926 ft | 452 kts | 175° |
| 2026-05-04 18:12 | 52.39129 | 13.96379 | 36926 ft | 453 kts | 175° |
| 2026-05-04 18:12 | 52.32954 | 13.98145 | 36926 ft | 453 kts | 175° |
| 2026-05-04 18:13 | 52.26756 | 13.99912 | 36926 ft | 453 kts | 175° |
| 2026-05-04 18:14 | 52.17509 | 14.02538 | 36926 ft | 453 kts | 175° |
| 2026-05-04 18:14 | 52.11299 | 14.04295 | 36926 ft | 453 kts | 175° |
| 2026-05-04 18:15 | 51.98874 | 14.07797 | 36926 ft | 453 kts | 175° |
| 2026-05-04 18:16 | 51.92665 | 14.09539 | 36926 ft | 453 kts | 175° |
| 2026-05-04 18:16 | 51.86480 | 14.11270 | 36926 ft | 453 kts | 175° |
| 2026-05-04 18:17 | 51.77192 | 14.13859 | 36926 ft | 453 kts | 175° |
| 2026-05-04 18:18 | 51.67886 | 14.16442 | 36926 ft | 453 kts | 174° |
| 2026-05-04 18:18 | 51.61673 | 14.18163 | 36927 ft | 453 kts | 174° |
| 2026-05-04 18:19 | 51.52373 | 14.20728 | 36937 ft | 453 kts | 175° |
| 2026-05-04 18:19 | 51.46183 | 14.22428 | 36945 ft | 454 kts | 174° |
| 2026-05-04 18:20 | 51.39973 | 14.24130 | 36949 ft | 454 kts | 174° |
| 2026-05-04 18:20 | 51.33760 | 14.25830 | 36950 ft | 454 kts | 174° |
| 2026-05-04 18:21 | 51.27535 | 14.27525 | 36951 ft | 454 kts | 174° |
| 2026-05-04 18:21 | 51.21348 | 14.29208 | 36951 ft | 454 kts | 174° |
| 2026-05-04 18:22 | 51.15142 | 14.30891 | 36951 ft | 454 kts | 174° |
| 2026-05-04 18:22 | 51.08887 | 14.32582 | 36950 ft | 455 kts | 174° |
| 2026-05-04 18:23 | 51.02685 | 14.34255 | 36951 ft | 455 kts | 174° |
| 2026-05-04 18:23 | 50.96439 | 14.35934 | 36949 ft | 455 kts | 174° |
| 2026-05-04 18:24 | 50.90246 | 14.37869 | 36943 ft | 457 kts | 170° |
| 2026-05-04 18:24 | 50.84066 | 14.40255 | 36930 ft | 459 kts | 166° |
| 2026-05-04 18:25 | 50.78334 | 14.44778 | 36930 ft | 468 kts | 149° |
| 2026-05-04 18:25 | 50.73033 | 14.50842 | 36927 ft | 469 kts | 147° |
| 2026-05-04 18:26 | 50.67789 | 14.56908 | 36926 ft | 469 kts | 147° |
| 2026-05-04 18:26 | 50.62496 | 14.62958 | 36926 ft | 469 kts | 147° |
| 2026-05-04 18:27 | 50.57240 | 14.68927 | 36926 ft | 469 kts | 148° |
| 2026-05-04 18:27 | 50.51926 | 14.74935 | 36926 ft | 469 kts | 148° |
| 2026-05-04 18:28 | 50.46660 | 14.80868 | 36926 ft | 469 kts | 148° |
| 2026-05-04 18:28 | 50.41359 | 14.86821 | 36926 ft | 469 kts | 148° |
| 2026-05-04 18:29 | 50.36057 | 14.92761 | 36926 ft | 469 kts | 148° |
| 2026-05-04 18:29 | 50.30766 | 14.98672 | 36926 ft | 469 kts | 148° |
| 2026-05-04 18:30 | 50.22781 | 15.07561 | 36926 ft | 470 kts | 148° |
| 2026-05-04 18:31 | 50.17450 | 15.13474 | 36926 ft | 470 kts | 148° |
| 2026-05-04 18:31 | 50.12162 | 15.19324 | 36926 ft | 470 kts | 148° |
| 2026-05-04 18:32 | 50.06837 | 15.25199 | 36926 ft | 470 kts | 148° |
| 2026-05-04 18:32 | 50.01521 | 15.31046 | 36926 ft | 470 kts | 147° |
| 2026-05-04 18:33 | 49.96161 | 15.36923 | 36927 ft | 470 kts | 147° |
| 2026-05-04 18:33 | 49.90848 | 15.42737 | 36927 ft | 470 kts | 147° |
| 2026-05-04 18:34 | 49.85490 | 15.48586 | 36926 ft | 470 kts | 147° |
| 2026-05-04 18:34 | 49.80129 | 15.54418 | 36926 ft | 471 kts | 147° |
| 2026-05-04 18:35 | 49.74796 | 15.60205 | 36926 ft | 471 kts | 147° |
| 2026-05-04 18:35 | 49.69445 | 15.65995 | 36731 ft | 471 kts | 148° |
| 2026-05-04 18:35 | 49.66788 | 15.68866 | 36482 ft | 468 kts | 148° |
| 2026-05-04 18:36 | 49.64124 | 15.71740 | 36231 ft | 465 kts | 148° |
| 2026-05-04 18:36 | 49.61500 | 15.74567 | 35684 ft | 465 kts | 148° |
| 2026-05-04 18:36 | 49.58856 | 15.77410 | 34982 ft | 464 kts | 148° |
| 2026-05-04 18:36 | 49.56199 | 15.80264 | 34274 ft | 464 kts | 148° |
| 2026-05-04 18:37 | 49.53561 | 15.83094 | 33547 ft | 464 kts | 148° |
| 2026-05-04 18:37 | 49.50912 | 15.85928 | 32817 ft | 464 kts | 148° |
| 2026-05-04 18:37 | 49.48280 | 15.88742 | 32094 ft | 466 kts | 148° |
| 2026-05-04 18:37 | 49.45623 | 15.91578 | 31367 ft | 468 kts | 148° |
| 2026-05-04 18:38 | 49.42990 | 15.94385 | 30650 ft | 470 kts | 148° |
| 2026-05-04 18:38 | 49.40284 | 15.97268 | 29928 ft | 472 kts | 148° |
| 2026-05-04 18:38 | 49.37617 | 16.00107 | 29258 ft | 474 kts | 148° |
| 2026-05-04 18:38 | 49.34925 | 16.02966 | 28559 ft | 472 kts | 147° |
| 2026-05-04 18:39 | 49.32211 | 16.05849 | 27848 ft | 469 kts | 147° |
| 2026-05-04 18:39 | 49.29590 | 16.08629 | 27157 ft | 465 kts | 147° |
| 2026-05-04 18:39 | 49.26921 | 16.11453 | 26449 ft | 462 kts | 147° |
| 2026-05-04 18:39 | 49.24314 | 16.14210 | 25752 ft | 459 kts | 147° |
| 2026-05-04 18:40 | 49.21683 | 16.16988 | 25045 ft | 456 kts | 147° |
| 2026-05-04 18:40 | 49.19097 | 16.19712 | 24346 ft | 453 kts | 147° |
| 2026-05-04 18:40 | 49.16511 | 16.22434 | 23641 ft | 449 kts | 147° |
| 2026-05-04 18:40 | 49.13985 | 16.25092 | 22948 ft | 446 kts | 147° |
| 2026-05-04 18:41 | 49.11425 | 16.27780 | 22241 ft | 443 kts | 147° |
| 2026-05-04 18:41 | 49.08921 | 16.30406 | 21544 ft | 439 kts | 147° |
| 2026-05-04 18:41 | 49.06414 | 16.33030 | 20842 ft | 436 kts | 147° |
| 2026-05-04 18:41 | 49.03911 | 16.35648 | 20134 ft | 432 kts | 147° |
| 2026-05-04 18:42 | 49.01463 | 16.38206 | 19437 ft | 429 kts | 147° |
| 2026-05-04 18:42 | 48.99029 | 16.40745 | 18739 ft | 425 kts | 147° |
| 2026-05-04 18:42 | 48.96615 | 16.43261 | 18040 ft | 421 kts | 147° |
| 2026-05-04 18:42 | 48.94197 | 16.45779 | 17333 ft | 418 kts | 147° |
| 2026-05-04 18:43 | 48.91844 | 16.48225 | 16641 ft | 414 kts | 147° |
| 2026-05-04 18:43 | 48.89476 | 16.50684 | 15962 ft | 410 kts | 147° |
| 2026-05-04 18:43 | 48.87122 | 16.53125 | 15281 ft | 406 kts | 147° |
| 2026-05-04 18:43 | 48.84832 | 16.55496 | 14611 ft | 402 kts | 147° |
| 2026-05-04 18:44 | 48.82545 | 16.57857 | 13936 ft | 398 kts | 148° |
| 2026-05-04 18:44 | 48.80933 | 16.59206 | 13471 ft | 393 kts | 160° |
| 2026-05-04 18:44 | 48.77446 | 16.59798 | 12985 ft | 370 kts | 188° |
| 2026-05-04 18:44 | 48.75043 | 16.58886 | 12966 ft | 353 kts | 198° |
| 2026-05-04 18:45 | 48.72729 | 16.57734 | 12961 ft | 351 kts | 199° |
| 2026-05-04 18:45 | 48.70399 | 16.56572 | 12960 ft | 351 kts | 199° |
| 2026-05-04 18:45 | 48.68104 | 16.55453 | 12959 ft | 350 kts | 198° |
| 2026-05-04 18:45 | 48.65774 | 16.54340 | 12958 ft | 350 kts | 198° |
| 2026-05-04 18:46 | 48.63469 | 16.53253 | 12744 ft | 350 kts | 198° |
| 2026-05-04 18:46 | 48.61140 | 16.52164 | 12346 ft | 347 kts | 198° |
| 2026-05-04 18:46 | 48.58847 | 16.51098 | 11946 ft | 345 kts | 198° |
| 2026-05-04 18:46 | 48.56580 | 16.50046 | 11548 ft | 343 kts | 197° |
| 2026-05-04 18:47 | 48.54310 | 16.48996 | 11147 ft | 341 kts | 197° |
| 2026-05-04 18:47 | 48.52045 | 16.47949 | 10745 ft | 339 kts | 197° |
| 2026-05-04 18:47 | 48.49814 | 16.46919 | 10341 ft | 332 kts | 197° |
| 2026-05-04 18:47 | 48.47648 | 16.45920 | 9942 ft | 326 kts | 197° |
| 2026-05-04 18:48 | 48.45511 | 16.44935 | 9543 ft | 320 kts | 197° |
| 2026-05-04 18:48 | 48.43359 | 16.44187 | 9135 ft | 314 kts | 187° |
| 2026-05-04 18:48 | 48.41267 | 16.43967 | 8747 ft | 293 kts | 181° |
| 2026-05-04 18:48 | 48.39292 | 16.43991 | 8344 ft | 275 kts | 180° |
| 2026-05-04 18:49 | 48.37416 | 16.44013 | 7943 ft | 269 kts | 183° |
| 2026-05-04 18:49 | 48.35598 | 16.43621 | 7545 ft | 266 kts | 188° |
| 2026-05-04 18:49 | 48.33770 | 16.43784 | 7124 ft | 266 kts | 162° |
| 2026-05-04 18:49 | 48.32204 | 16.45218 | 6724 ft | 269 kts | 136° |
| 2026-05-04 18:50 | 48.31067 | 16.47425 | 6336 ft | 269 kts | 126° |
| 2026-05-04 18:50 | 48.30061 | 16.49803 | 5934 ft | 267 kts | 124° |
| 2026-05-04 18:50 | 48.29047 | 16.52110 | 5524 ft | 264 kts | 135° |
| 2026-05-04 18:50 | 48.27632 | 16.53742 | 4373 ft | 272 kts | 158° |
| 2026-05-04 18:51 | 48.25789 | 16.54072 | 2873 ft | 283 kts | 191° |
| 2026-05-04 18:51 | 48.23892 | 16.53379 | 2100 ft | 265 kts | 188° |
| 2026-05-04 18:51 | 48.22345 | 16.53012 | 3626 ft | 209 kts | 186° |
| 2026-05-04 18:51 | 48.21033 | 16.52877 | 4490 ft | 204 kts | 178° |
| 2026-05-04 18:52 | 48.19486 | 16.53247 | 4137 ft | 245 kts | 160° |
| 2026-05-04 18:52 | 48.17952 | 16.54467 | 2985 ft | 265 kts | 148° |
| 2026-05-04 18:52 | 48.16402 | 16.55907 | 2275 ft | 253 kts | 147° |
| 2026-05-04 18:52 | 48.14831 | 16.56970 | 2453 ft | 252 kts | 165° |
| 2026-05-04 18:53 | 48.13118 | 16.57544 | 2857 ft | 254 kts | 163° |
| 2026-05-04 18:53 | 48.11594 | 16.58816 | 3245 ft | 256 kts | 136° |
| 2026-05-04 18:53 | 48.10656 | 16.61086 | 3650 ft | 261 kts | 108° |
| 2026-05-04 18:53 | 48.10554 | 16.63801 | 4051 ft | 269 kts | 80° |
| 2026-05-04 18:54 | 48.11326 | 16.66342 | 4450 ft | 277 kts | 53° |
| 2026-05-04 18:54 | 48.12830 | 16.68149 | 4842 ft | 284 kts | 26° |
| 2026-05-04 18:54 | 48.14749 | 16.68874 | 5370 ft | 291 kts | 3° |
| 2026-05-04 18:54 | 48.16769 | 16.68581 | 5845 ft | 292 kts | 348° |
| 2026-05-04 18:55 | 48.18753 | 16.67920 | 5983 ft | 293 kts | 345° |
| 2026-05-04 18:55 | 48.22694 | 16.66453 | 5842 ft | 293 kts | 345° |
| 2026-05-04 18:55 | 48.24651 | 16.65713 | 5450 ft | 292 kts | 345° |
| 2026-05-04 18:56 | 48.26606 | 16.64964 | 5040 ft | 291 kts | 345° |
| 2026-05-04 18:56 | 48.28582 | 16.64199 | 4634 ft | 290 kts | 345° |
| 2026-05-04 18:56 | 48.30519 | 16.63438 | 4227 ft | 289 kts | 345° |
| 2026-05-04 18:56 | 48.32454 | 16.62667 | 3822 ft | 287 kts | 345° |
| 2026-05-04 18:57 | 48.34298 | 16.61646 | 3413 ft | 285 kts | 327° |
| 2026-05-04 18:57 | 48.35676 | 16.59619 | 3050 ft | 278 kts | 298° |
| 2026-05-04 18:57 | 48.36227 | 16.56942 | 2987 ft | 266 kts | 269° |
| 2026-05-04 18:57 | 48.35862 | 16.54252 | 2983 ft | 261 kts | 240° |
| 2026-05-04 18:58 | 48.34729 | 16.52266 | 2977 ft | 243 kts | 211° |
| 2026-05-04 18:58 | 48.33260 | 16.51254 | 2986 ft | 225 kts | 198° |
| 2026-05-04 18:58 | 48.31771 | 16.50563 | 2996 ft | 223 kts | 192° |
| 2026-05-04 18:58 | 48.30254 | 16.50357 | 2984 ft | 222 kts | 176° |
| 2026-05-04 18:59 | 48.28715 | 16.50712 | 3004 ft | 222 kts | 166° |
| 2026-05-04 18:59 | 48.27285 | 16.51299 | 2983 ft | 207 kts | 164° |
| 2026-05-04 18:59 | 48.25968 | 16.51890 | 2967 ft | 191 kts | 163° |
| 2026-05-04 18:59 | 48.24733 | 16.52431 | 2966 ft | 180 kts | 164° |
| 2026-05-04 19:00 | 48.23523 | 16.52953 | 2890 ft | 180 kts | 164° |
| 2026-05-04 19:00 | 48.22328 | 16.53458 | 2673 ft | 179 kts | 164° |
| 2026-05-04 19:00 | 48.21130 | 16.53958 | 2519 ft | 178 kts | 164° |
| 2026-05-04 19:00 | 48.19945 | 16.54457 | 2256 ft | 178 kts | 163° |
| 2026-05-04 19:01 | 48.18797 | 16.54940 | 2001 ft | 169 kts | 164° |
| 2026-05-04 19:01 | 48.17707 | 16.55397 | 1781 ft | 154 kts | 163° |
| 2026-05-04 19:01 | 48.16723 | 16.55811 | 1551 ft | 140 kts | 162° |
| 2026-05-04 19:01 | 48.15834 | 16.56186 | 1354 ft | 128 kts | 162° |
| 2026-05-04 19:02 | 48.14978 | 16.56548 | 1203 ft | 127 kts | 162° |
| 2026-05-04 19:02 | 48.14127 | 16.56909 | 1047 ft | 127 kts | 162° |
| 2026-05-04 19:02 | 48.13282 | 16.57265 | 881 ft | 126 kts | 162° |
| 2026-05-04 19:02 | 48.12442 | 16.57621 | 716 ft | 126 kts | 162° |
| 2026-05-04 19:03 | 48.11610 | 16.57981 | 593 ft | 124 kts | 162° |
| 2026-05-04 19:03 | 48.10891 | 16.58286 | 596 ft | 82 kts | 167° |
| 2026-05-04 19:03 | 48.10511 | 16.58448 | 600 ft | 31 kts | 163° |
| 2026-05-04 19:03 | 48.10383 | 16.58462 | 600 ft | 16 kts | 174° |
| 2026-05-04 19:04 | 48.10287 | 16.58455 | 600 ft | 14 kts | 187° |
| 2026-05-04 19:04 | 48.10208 | 16.58431 | 601 ft | 9 kts | 194° |
| 2026-05-04 19:04 | 48.10167 | 16.58414 | 601 ft | 0 kts | 199° |
| 2026-05-04 19:04 | 48.10154 | 16.58407 | 601 ft | 3 kts | 201° |
| 2026-05-04 19:05 | 48.10130 | 16.58353 | 602 ft | 8 kts | 294° |
| 2026-05-04 19:05 | 48.10188 | 16.58299 | 603 ft | 11 kts | 343° |
| 2026-05-04 19:05 | 48.10267 | 16.58263 | 604 ft | 12 kts | 343° |
| 2026-05-04 19:05 | 48.10354 | 16.58225 | 604 ft | 7 kts | 344° |
| 2026-05-04 19:06 | 48.10386 | 16.58212 | 604 ft | 4 kts | 347° |
| 2026-05-04 19:06 | 48.10439 | 16.58194 | 603 ft | 10 kts | 347° |
| 2026-05-04 19:06 | 48.10529 | 16.58153 | 602 ft | 16 kts | 343° |
| 2026-05-04 19:06 | 48.10666 | 16.58095 | 601 ft | 23 kts | 345° |
| 2026-05-04 19:07 | 48.10838 | 16.58024 | 599 ft | 22 kts | 344° |
| 2026-05-04 19:07 | 48.10926 | 16.57979 | 598 ft | 13 kts | 328° |
| 2026-05-04 19:07 | 48.11000 | 16.57868 | 598 ft | 6 kts | 314° |
| 2026-05-04 19:07 | 48.11033 | 16.57811 | 599 ft | 10 kts | 304° |
| 2026-05-04 19:08 | 48.11079 | 16.57675 | 598 ft | 18 kts | 296° |
| 2026-05-04 19:08 | 48.11131 | 16.57515 | 599 ft | 19 kts | 296° |
| 2026-05-04 19:08 | 48.11194 | 16.57318 | 603 ft | 21 kts | 296° |
| 2026-05-04 19:08 | 48.11245 | 16.57167 | 604 ft | 16 kts | 296° |
| 2026-05-04 19:09 | 48.11291 | 16.57023 | 605 ft | 13 kts | 296° |
| 2026-05-04 19:09 | 48.11335 | 16.56886 | 604 ft | 14 kts | 296° |
| 2026-05-04 19:09 | 48.11387 | 16.56827 | 603 ft | 9 kts | 1° |
| 2026-05-04 19:09 | 48.11445 | 16.56859 | 605 ft | 10 kts | 25° |
| 2026-05-04 19:10 | 48.11517 | 16.56911 | 606 ft | 11 kts | 23° |
| 2026-05-04 19:10 | 48.11598 | 16.56861 | 606 ft | 17 kts | 297° |
| 2026-05-04 19:10 | 48.11655 | 16.56685 | 603 ft | 15 kts | 296° |
| 2026-05-04 19:10 | 48.11676 | 16.56643 | 602 ft | 5 kts | 349° |
| 2026-05-04 19:11 | 48.11690 | 16.56648 | 601 ft | 3 kts | 17° |
| 2026-05-04 19:11 | 48.11725 | 16.56671 | 600 ft | 4 kts | 25° |
| 2026-05-04 19:11 | 48.11741 | 16.56682 | 600 ft | 0 kts | 27° |